Time;durP1;ratioP1;P1;durP2;ratioP2;P2;SDS_P1;SDS_P2;PMS_P1;PMS_P2;Temp;Humidity;BMP_temperature;BMP_pressure;BME280_temperature;BME280_humidity;BME280_pressure;Samples;Min_cycle;Max_cycle;Signal;HPM_P1;HPM_P2
2022/02/12 00:00:24;;;;;;;759.33;249.30;;;;;;;;;;4938844;28;20130;-76
2022/02/12 00:02:52;;;;;;;760.70;248.23;;;;;;;;;;4959686;28;20041;-77
2022/02/12 00:05:18;;;;;;;765.97;251.90;;;;;;;;;;4957571;28;20037;-77
2022/02/12 00:07:44;;;;;;;761.53;251.07;;;;;;;;;;4950095;28;20122;-76
2022/02/12 00:10:11;;;;;;;767.28;254.45;;;;;;;;;;4946786;29;20031;-77
2022/02/12 00:12:37;;;;;;;760.47;249.50;;;;;;;;;;4944608;29;20030;-76
2022/02/12 00:15:03;;;;;;;768.37;253.87;;;;;;;;;;4953086;28;20024;-77
2022/02/12 00:17:29;;;;;;;761.85;249.30;;;;;;;;;;4953625;28;20024;-78
2022/02/12 00:19:55;;;;;;;764.77;250.33;;;;;;;;;;4988886;28;20038;-76
2022/02/12 00:22:21;;;;;;;762.17;247.10;;;;;;;;;;4938336;28;20438;-76
2022/02/12 00:24:47;;;;;;;763.80;251.25;;;;;;;;;;4949218;29;20565;-77
2022/02/12 00:27:16;;;;;;;763.07;251.23;;;;;;;;;;4950022;28;20123;-76
2022/02/12 00:29:42;;;;;;;761.30;248.48;;;;;;;;;;4953825;28;20029;-75
2022/02/12 00:32:08;;;;;;;761.45;250.40;;;;;;;;;;4968099;28;20438;-76
2022/02/12 00:34:34;;;;;;;761.75;250.57;;;;;;;;;;4984342;28;20037;-76
2022/02/12 00:37:00;;;;;;;761.53;250.63;;;;;;;;;;4944574;28;20031;-75
2022/02/12 00:39:26;;;;;;;762.93;248.50;;;;;;;;;;4938660;29;20043;-77
2022/02/12 00:41:52;;;;;;;761.73;251.30;;;;;;;;;;4949755;29;20027;-76
2022/02/12 00:44:18;;;;;;;761.60;248.93;;;;;;;;;;4949096;28;20031;-77
2022/02/12 00:46:44;;;;;;;763.33;246.43;;;;;;;;;;4934508;28;20039;-76
2022/02/12 00:49:10;;;;;;;762.07;250.53;;;;;;;;;;4937789;29;20035;-76
2022/02/12 00:51:36;;;;;;;759.33;245.55;;;;;;;;;;4970116;28;20110;-76
2022/02/12 00:54:02;;;;;;;757.83;244.60;;;;;;;;;;4961273;28;20035;-76
2022/02/12 00:56:29;;;;;;;758.47;243.13;;;;;;;;;;4944605;29;20446;-78
2022/02/12 00:58:56;;;;;;;758.83;244.43;;;;;;;;;;4972521;28;20362;-77
2022/02/12 01:01:22;;;;;;;759.50;247.40;;;;;;;;;;4953654;28;20036;-78
2022/02/12 01:03:48;;;;;;;760.40;247.10;;;;;;;;;;4945033;29;20501;-76
2022/02/12 01:06:14;;;;;;;761.55;252.88;;;;;;;;;;4948648;28;20047;-77
2022/02/12 01:08:40;;;;;;;759.78;247.02;;;;;;;;;;4948619;28;20035;-77
2022/02/12 01:11:06;;;;;;;761.80;248.20;;;;;;;;;;4990159;28;20110;-76
2022/02/12 01:13:32;;;;;;;760.47;251.25;;;;;;;;;;4936826;29;20078;-76
2022/02/12 01:15:58;;;;;;;763.10;252.65;;;;;;;;;;4956485;28;20059;-77
2022/02/12 01:18:24;;;;;;;760.75;249.02;;;;;;;;;;4945625;28;20036;-77
2022/02/12 01:20:50;;;;;;;761.58;254.02;;;;;;;;;;4976055;28;20498;-77
2022/02/12 01:23:16;;;;;;;760.13;252.30;;;;;;;;;;4947414;28;20112;-76
2022/02/12 01:25:44;;;;;;;762.28;252.85;;;;;;;;;;4949433;28;20118;-77
2022/02/12 01:28:10;;;;;;;762.40;257.20;;;;;;;;;;4970185;28;20023;-76
2022/02/12 01:30:36;;;;;;;761.53;256.67;;;;;;;;;;4946497;28;20102;-76
2022/02/12 01:33:02;;;;;;;762.42;254.38;;;;;;;;;;4964299;28;20077;-76
2022/02/12 01:35:28;;;;;;;763.05;258.65;;;;;;;;;;4949895;28;20024;-76
2022/02/12 01:37:54;;;;;;;760.80;256.60;;;;;;;;;;4960333;28;20049;-77
2022/02/12 01:40:39;;;;;;;759.15;254.30;;;;;;;;;;4977478;28;20503;-77
2022/02/12 01:43:07;;;;;;;758.83;250.40;;;;;;;;;;4960011;28;20394;-76
2022/02/12 01:45:33;;;;;;;758.85;249.55;;;;;;;;;;4966663;28;20499;-78
2022/02/12 01:47:59;;;;;;;760.08;253.25;;;;;;;;;;4942577;29;20468;-76
2022/02/12 01:50:25;;;;;;;762.30;257.30;;;;;;;;;;4932125;29;20170;-77
2022/02/12 01:52:52;;;;;;;761.28;254.38;;;;;;;;;;4932621;28;20380;-76
2022/02/12 01:55:18;;;;;;;762.88;257.13;;;;;;;;;;4994064;28;20130;-76
2022/02/12 01:57:44;;;;;;;764.95;258.65;;;;;;;;;;4988447;28;20032;-78
2022/02/12 02:00:11;;;;;;;764.38;259.10;;;;;;;;;;4961004;28;20031;-77
2022/02/12 02:02:38;;;;;;;759.85;258.83;;;;;;;;;;4957302;28;20071;-77
2022/02/12 02:05:14;;;;;;;770.08;258.73;;;;;;;;;;4961866;28;20038;-76
2022/02/12 02:07:41;;;;;;;762.28;253.85;;;;;;;;;;4957176;28;20477;-76
2022/02/12 02:10:08;;;;;;;764.55;260.42;;;;;;;;;;4965506;28;20082;-77
2022/02/12 02:12:35;;;;;;;763.17;258.75;;;;;;;;;;4950618;28;20149;-77
2022/02/12 02:15:01;;;;;;;763.15;258.73;;;;;;;;;;4943847;28;20119;-76
2022/02/12 02:17:27;;;;;;;763.75;260.40;;;;;;;;;;4950500;28;20032;-76
2022/02/12 02:19:54;;;;;;;762.58;262.80;;;;;;;;;;4962802;28;20486;-78
2022/02/12 02:22:25;;;;;;;759.95;258.33;;;;;;;;;;4962655;28;20063;-76
2022/02/12 02:24:51;;;;;;;763.30;256.10;;;;;;;;;;4945174;28;20036;-78
2022/02/12 02:27:19;;;;;;;761.63;254.95;;;;;;;;;;4980535;28;20402;-78
2022/02/12 02:29:45;;;;;;;764.03;258.65;;;;;;;;;;4945195;28;20030;-78
2022/02/12 02:32:11;;;;;;;763.53;261.88;;;;;;;;;;4976448;28;20466;-77
2022/02/12 02:34:38;;;;;;;766.58;263.77;;;;;;;;;;4943938;28;20097;-77
2022/02/12 02:37:04;;;;;;;763.47;261.52;;;;;;;;;;4963110;28;20048;-77
2022/02/12 02:39:31;;;;;;;762.40;258.83;;;;;;;;;;4993726;28;20060;-77
2022/02/12 02:41:57;;;;;;;761.33;259.25;;;;;;;;;;4983275;28;20053;-78
2022/02/12 02:44:23;;;;;;;759.30;253.02;;;;;;;;;;4994075;28;20035;-77
2022/02/12 02:46:49;;;;;;;762.80;258.50;;;;;;;;;;4950182;28;20032;-78
2022/02/12 02:49:15;;;;;;;760.85;254.70;;;;;;;;;;4979939;28;20031;-77
2022/02/12 02:57:10;;;;;;;755.88;246.35;;;;;;;;;;4961735;28;20057;-77
2022/02/12 02:59:37;;;;;;;756.92;248.40;;;;;;;;;;4956772;28;20066;-76
2022/02/12 03:02:03;;;;;;;756.55;249.48;;;;;;;;;;4989019;28;20036;-77
2022/02/12 03:04:31;;;;;;;756.45;248.48;;;;;;;;;;4977266;28;20066;-78
2022/02/12 03:06:57;;;;;;;755.85;250.23;;;;;;;;;;4958973;28;20055;-76
2022/02/12 03:09:23;;;;;;;755.97;250.68;;;;;;;;;;4952133;28;20102;-76
2022/02/12 03:11:58;;;;;;;757.67;254.35;;;;;;;;;;4948035;28;20031;-77
2022/02/12 03:14:24;;;;;;;754.30;251.30;;;;;;;;;;4945954;29;20035;-76
2022/02/12 03:16:50;;;;;;;757.17;252.82;;;;;;;;;;4971641;28;20042;-77
2022/02/12 03:19:16;;;;;;;758.15;252.75;;;;;;;;;;4944882;28;20510;-76
2022/02/12 03:21:42;;;;;;;758.80;255.73;;;;;;;;;;4943153;28;20028;-77
2022/02/12 03:24:08;;;;;;;756.15;250.23;;;;;;;;;;4992700;28;20381;-77
2022/02/12 03:26:34;;;;;;;759.67;257.55;;;;;;;;;;4946296;28;20465;-77
2022/02/12 03:29:00;;;;;;;757.23;251.20;;;;;;;;;;4981129;28;20035;-78
2022/02/12 03:31:26;;;;;;;758.00;254.37;;;;;;;;;;4947567;28;20035;-76
2022/02/12 03:33:52;;;;;;;755.42;250.40;;;;;;;;;;4943062;28;20039;-77
2022/02/12 03:36:18;;;;;;;759.33;255.52;;;;;;;;;;4949830;28;20446;-76
2022/02/12 03:38:48;;;;;;;758.90;254.43;;;;;;;;;;4946120;28;20118;-77
2022/02/12 03:41:14;;;;;;;760.50;259.93;;;;;;;;;;4946604;29;20027;-77
2022/02/12 03:43:40;;;;;;;757.42;254.50;;;;;;;;;;4961283;28;20043;-77
2022/02/12 03:46:06;;;;;;;758.67;256.20;;;;;;;;;;4960050;28;20055;-75
2022/02/12 03:48:33;;;;;;;759.83;257.98;;;;;;;;;;4945764;29;20034;-77
2022/02/12 03:51:00;;;;;;;761.85;258.70;;;;;;;;;;4956342;28;20023;-76
2022/02/12 03:53:27;;;;;;;759.13;256.05;;;;;;;;;;4945958;29;20040;-77
2022/02/12 03:55:53;;;;;;;758.25;257.27;;;;;;;;;;4957820;28;20541;-75
2022/02/12 03:58:19;;;;;;;760.70;255.57;;;;;;;;;;4932255;28;20062;-77
2022/02/12 04:00:46;;;;;;;757.20;257.55;;;;;;;;;;4929568;29;20035;-76
2022/02/12 04:03:13;;;;;;;759.67;257.30;;;;;;;;;;4924839;29;20494;-76
2022/02/12 04:05:43;;;;;;;757.23;254.13;;;;;;;;;;4963139;28;20379;-76
2022/02/12 04:08:10;;;;;;;754.65;254.43;;;;;;;;;;4940045;29;20050;-78
2022/02/12 04:10:36;;;;;;;753.53;253.40;;;;;;;;;;4951134;28;20024;-76
2022/02/12 04:13:03;;;;;;;756.38;254.45;;;;;;;;;;4935807;28;20445;-76
2022/02/12 04:15:29;;;;;;;751.05;250.45;;;;;;;;;;4931941;28;20023;-77
2022/02/12 04:17:57;;;;;;;754.40;255.55;;;;;;;;;;4925091;28;20549;-76
2022/02/12 04:20:23;;;;;;;755.88;256.33;;;;;;;;;;4939372;29;20035;-78
2022/02/12 04:22:50;;;;;;;753.53;251.05;;;;;;;;;;4945676;28;20040;-76
2022/02/12 04:25:17;;;;;;;752.90;253.48;;;;;;;;;;4932095;29;20043;-77
2022/02/12 04:27:44;;;;;;;754.08;255.43;;;;;;;;;;4947935;29;20027;-77
2022/02/12 04:30:11;;;;;;;755.55;257.23;;;;;;;;;;4952217;28;20032;-77
2022/02/12 04:32:37;;;;;;;753.77;254.23;;;;;;;;;;4943731;28;20043;-77
2022/02/12 04:35:04;;;;;;;748.38;248.82;;;;;;;;;;4944564;28;20289;-76
2022/02/12 04:37:31;;;;;;;752.70;250.82;;;;;;;;;;4941081;28;20200;-77
2022/02/12 04:39:57;;;;;;;750.65;249.75;;;;;;;;;;4949893;28;20023;-76
2022/02/12 04:42:26;;;;;;;750.25;246.90;;;;;;;;;;4945414;28;20399;-75
2022/02/12 04:44:52;;;;;;;750.38;246.93;;;;;;;;;;4939445;29;20089;-77
2022/02/12 04:47:19;;;;;;;750.83;246.68;;;;;;;;;;4949963;28;20038;-77
2022/02/12 04:49:46;;;;;;;749.88;247.40;;;;;;;;;;4978533;28;20025;-76
2022/02/12 04:52:13;;;;;;;755.05;254.18;;;;;;;;;;4943611;29;20034;-76
2022/02/12 04:54:39;;;;;;;750.35;248.77;;;;;;;;;;4959219;28;20055;-76
2022/02/12 04:57:06;;;;;;;750.85;250.45;;;;;;;;;;4949688;28;20039;-77
2022/02/12 04:59:32;;;;;;;750.50;248.45;;;;;;;;;;4955203;28;20055;-76
2022/02/12 05:01:58;;;;;;;751.08;249.77;;;;;;;;;;4937741;28;20038;-77
2022/02/12 05:04:25;;;;;;;750.22;248.45;;;;;;;;;;4961362;28;20028;-78
2022/02/12 05:06:53;;;;;;;752.40;251.52;;;;;;;;;;4951753;28;20410;-76
2022/02/12 05:09:19;;;;;;;749.92;245.43;;;;;;;;;;4943925;28;20027;-78
2022/02/12 05:11:51;;;;;;;750.80;248.00;;;;;;;;;;4940544;28;20031;-77
2022/02/12 05:14:17;;;;;;;746.72;244.90;;;;;;;;;;4972004;28;20407;-78
2022/02/12 05:16:42;;;;;;;750.10;245.70;;;;;;;;;;4948890;28;20039;-78
2022/02/12 05:19:12;;;;;;;749.43;247.37;;;;;;;;;;4958098;28;20039;-78
2022/02/12 05:21:40;;;;;;;749.50;246.45;;;;;;;;;;4947095;28;20096;-78
2022/02/12 05:24:06;;;;;;;749.85;248.05;;;;;;;;;;4944652;28;20038;-77
2022/02/12 05:26:32;;;;;;;752.20;248.35;;;;;;;;;;4952963;28;20395;-78
2022/02/12 05:28:58;;;;;;;749.50;246.30;;;;;;;;;;4961547;28;20035;-77
2022/02/12 05:31:24;;;;;;;749.63;245.35;;;;;;;;;;4953809;28;20086;-78
2022/02/12 05:33:50;;;;;;;749.83;242.48;;;;;;;;;;4955053;28;20039;-77
2022/02/12 05:36:17;;;;;;;750.38;245.45;;;;;;;;;;4962780;28;20036;-77
2022/02/12 05:38:43;;;;;;;752.63;247.45;;;;;;;;;;4946849;28;20098;-77
2022/02/12 05:41:10;;;;;;;749.45;247.23;;;;;;;;;;4945656;29;20070;-78
2022/02/12 05:43:37;;;;;;;752.80;248.83;;;;;;;;;;4951398;28;20032;-78
2022/02/12 05:46:03;;;;;;;750.70;248.23;;;;;;;;;;4952388;28;20031;-77
2022/02/12 05:48:29;;;;;;;748.80;244.90;;;;;;;;;;4948869;28;20050;-77
2022/02/12 05:50:55;;;;;;;753.70;249.60;;;;;;;;;;4950227;28;20494;-77
2022/02/12 05:53:21;;;;;;;748.38;245.20;;;;;;;;;;4944919;28;20131;-78
2022/02/12 05:55:48;;;;;;;749.80;249.20;;;;;;;;;;4966151;28;20495;-76
2022/02/12 05:58:14;;;;;;;750.35;246.15;;;;;;;;;;4978095;28;20396;-77
2022/02/12 06:00:40;;;;;;;750.00;242.63;;;;;;;;;;4965170;28;20040;-77
2022/02/12 06:03:06;;;;;;;751.72;245.38;;;;;;;;;;4997292;28;20031;-76
2022/02/12 06:05:33;;;;;;;749.85;247.07;;;;;;;;;;4992996;28;20037;-78
2022/02/12 06:08:01;;;;;;;748.85;244.20;;;;;;;;;;5038882;28;20064;-78
2022/02/12 06:10:27;;;;;;;748.60;241.60;;;;;;;;;;4965204;28;20019;-78
2022/02/12 06:12:53;;;;;;;749.95;242.82;;;;;;;;;;4946789;28;20123;-78
2022/02/12 06:15:19;;;;;;;750.17;246.15;;;;;;;;;;4963603;28;20471;-77
2022/02/12 06:17:46;;;;;;;750.83;247.65;;;;;;;;;;4952599;28;20088;-77
2022/02/12 06:20:12;;;;;;;750.92;246.77;;;;;;;;;;4982132;28;20069;-78
2022/02/12 06:22:38;;;;;;;749.83;243.60;;;;;;;;;;4970703;28;20040;-78
2022/02/12 06:25:04;;;;;;;750.95;246.32;;;;;;;;;;4963490;28;20042;-78
2022/02/12 06:27:30;;;;;;;749.63;245.25;;;;;;;;;;4942467;29;20552;-77
2022/02/12 06:29:56;;;;;;;751.45;246.38;;;;;;;;;;4956217;28;20039;-78
2022/02/12 06:32:22;;;;;;;749.40;241.65;;;;;;;;;;4976635;28;20507;-78
2022/02/12 06:34:50;;;;;;;748.92;245.75;;;;;;;;;;4958511;28;20070;-78
2022/02/12 06:37:16;;;;;;;750.88;248.23;;;;;;;;;;4979805;28;20138;-78
2022/02/12 06:39:42;;;;;;;752.23;250.50;;;;;;;;;;4970841;28;20481;-79
2022/02/12 06:42:08;;;;;;;751.22;251.48;;;;;;;;;;4939105;29;20035;-78
2022/02/12 06:44:37;;;;;;;750.78;247.38;;;;;;;;;;4998685;28;20031;-76
2022/02/12 06:47:03;;;;;;;752.70;247.57;;;;;;;;;;4948872;28;20035;-77
2022/02/12 06:49:29;;;;;;;756.72;248.55;;;;;;;;;;4994740;28;20058;-78
2022/02/12 06:51:55;;;;;;;747.60;239.60;;;;;;;;;;4949717;28;20471;-78
2022/02/12 06:54:21;;;;;;;749.35;246.75;;;;;;;;;;4961949;28;20027;-77
2022/02/12 06:56:47;;;;;;;749.50;244.07;;;;;;;;;;4945647;28;20055;-78
2022/02/12 06:59:13;;;;;;;750.57;242.20;;;;;;;;;;4968408;28;20042;-78
2022/02/12 07:01:39;;;;;;;750.42;242.20;;;;;;;;;;4944965;29;20045;-78
2022/02/12 07:04:05;;;;;;;749.83;243.85;;;;;;;;;;4948849;29;20028;-78
2022/02/12 07:06:31;;;;;;;746.55;239.85;;;;;;;;;;4963020;28;20130;-78
2022/02/12 07:08:57;;;;;;;746.40;238.65;;;;;;;;;;4972599;28;20024;-78
2022/02/12 07:11:23;;;;;;;748.83;241.50;;;;;;;;;;4979295;28;20443;-77
2022/02/12 07:13:49;;;;;;;750.93;242.70;;;;;;;;;;4961192;28;20035;-79
2022/02/12 07:16:15;;;;;;;746.25;238.43;;;;;;;;;;4963988;28;20035;-78
2022/02/12 07:18:44;;;;;;;762.60;243.02;;;;;;;;;;4982235;28;20093;-78
2022/02/12 07:21:10;;;;;;;759.63;242.35;;;;;;;;;;4956285;28;20023;-79
2022/02/12 07:23:36;;;;;;;750.47;244.57;;;;;;;;;;4965335;28;20049;-79
2022/02/12 07:29:11;;;;;;;743.80;233.93;;;;;;;;;;4946831;28;20034;-78
2022/02/12 07:31:40;;;;;;;746.17;239.33;;;;;;;;;;4947617;28;20035;-75
2022/02/12 07:34:08;;;;;;;739.30;230.90;;;;;;;;;;4948991;29;20031;-75
2022/02/12 07:36:34;;;;;;;742.72;237.15;;;;;;;;;;4939473;29;20062;-78
2022/02/12 07:39:00;;;;;;;746.50;242.23;;;;;;;;;;4938688;28;20530;-78
2022/02/12 07:41:27;;;;;;;746.20;242.97;;;;;;;;;;4992164;28;20060;-79
2022/02/12 07:43:54;;;;;;;746.30;241.88;;;;;;;;;;4981447;28;20423;-79
2022/02/12 07:46:20;;;;;;;744.50;240.88;;;;;;;;;;4936658;28;20040;-79
2022/02/12 07:48:47;;;;;;;745.40;242.00;;;;;;;;;;4961088;28;20035;-75
2022/02/12 07:51:13;;;;;;;745.97;243.00;;;;;;;;;;4993828;28;20098;-78
2022/02/12 07:53:39;;;;;;;749.75;247.38;;;;;;;;;;4967732;28;20523;-76
2022/02/12 07:56:05;;;;;;;749.78;248.95;;;;;;;;;;5021512;28;20024;-78
2022/02/12 07:58:38;;;;;;;751.95;251.82;;;;;;;;;;4960589;28;20446;-78
2022/02/12 08:01:05;;;;;;;751.53;255.77;;;;;;;;;;4954209;28;20118;-77
2022/02/12 08:03:34;;;;;;;814.90;267.92;;;;;;;;;;4945083;28;20027;-77
2022/02/12 08:06:01;;;;;;;765.55;278.42;;;;;;;;;;4994706;28;20034;-78
2022/02/12 08:08:27;;;;;;;767.97;290.23;;;;;;;;;;4962032;28;20410;-76
2022/02/12 08:13:37;;;;;;;771.90;304.02;;;;;;;;;;4961932;28;20442;-78
2022/02/12 08:16:04;;;;;;;774.72;310.73;;;;;;;;;;4953869;28;20051;-78
2022/02/12 08:18:30;;;;;;;779.80;319.92;;;;;;;;;;4966507;28;20032;-78
2022/02/12 08:20:56;;;;;;;777.47;320.90;;;;;;;;;;4945572;28;20421;-79
2022/02/12 08:23:27;;;;;;;778.90;319.70;;;;;;;;;;4948608;28;20066;-79
2022/02/12 08:25:53;;;;;;;780.42;326.55;;;;;;;;;;4960476;28;20436;-82
2022/02/12 08:28:19;;;;;;;783.47;334.13;;;;;;;;;;4959290;28;20039;-82
2022/02/12 08:30:45;;;;;;;785.97;341.30;;;;;;;;;;4974063;28;20471;-82
2022/02/12 08:33:11;;;;;;;787.35;342.38;;;;;;;;;;4971285;28;20053;-82
2022/02/12 08:35:37;;;;;;;790.47;345.92;;;;;;;;;;4941245;28;20270;-82
2022/02/12 08:38:03;;;;;;;795.83;363.85;;;;;;;;;;4967361;28;20027;-84
2022/02/12 08:40:29;;;;;;;799.30;370.20;;;;;;;;;;4960034;28;20042;-82
2022/02/12 08:42:54;;;;;;;800.30;374.73;;;;;;;;;;4951709;28;20134;-82
2022/02/12 08:45:20;;;;;;;803.72;385.90;;;;;;;;;;4959545;28;20043;-82
2022/02/12 08:47:47;;;;;;;803.63;384.65;;;;;;;;;;4970140;28;20034;-82
2022/02/12 08:50:15;;;;;;;802.65;387.35;;;;;;;;;;4956990;28;20038;-81
2022/02/12 08:52:41;;;;;;;804.30;384.25;;;;;;;;;;4947383;28;20035;-81
2022/02/12 08:55:07;;;;;;;801.80;376.15;;;;;;;;;;4989762;28;20031;-80
2022/02/12 08:57:33;;;;;;;804.40;388.98;;;;;;;;;;4994486;28;20382;-80
2022/02/12 08:59:59;;;;;;;801.83;380.67;;;;;;;;;;4968821;28;20039;-80
2022/02/12 09:02:25;;;;;;;807.03;396.58;;;;;;;;;;4964080;28;20398;-80
2022/02/12 09:04:51;;;;;;;803.60;394.67;;;;;;;;;;4965048;28;20043;-84
2022/02/12 09:07:17;;;;;;;799.42;381.27;;;;;;;;;;4948460;28;20257;-79
2022/02/12 09:09:43;;;;;;;800.85;376.70;;;;;;;;;;4961307;28;20826;-83
2022/02/12 09:12:11;;;;;;;795.60;365.00;;;;;;;;;;4958276;28;20382;-81
2022/02/12 09:14:37;;;;;;;796.72;363.52;;;;;;;;;;4947495;28;20035;-80
2022/02/12 09:17:04;;;;;;;797.10;357.90;;;;;;;;;;4969073;28;20070;-80
2022/02/12 09:19:30;;;;;;;796.58;364.70;;;;;;;;;;4976358;28;20122;-78
2022/02/12 09:21:56;;;;;;;798.20;371.50;;;;;;;;;;4971362;28;20101;-79
2022/02/12 09:24:22;;;;;;;806.65;395.25;;;;;;;;;;4957421;28;20031;-79
2022/02/12 09:26:48;;;;;;;803.92;389.83;;;;;;;;;;4967835;28;20047;-78
2022/02/12 09:29:14;;;;;;;804.83;387.67;;;;;;;;;;4989493;28;20415;-78
2022/02/12 09:31:40;;;;;;;802.65;383.08;;;;;;;;;;4959914;28;20487;-79
2022/02/12 09:34:06;;;;;;;805.38;392.38;;;;;;;;;;4963302;28;20023;-78
2022/02/12 09:36:32;;;;;;;802.80;388.27;;;;;;;;;;5001387;28;20346;-78
2022/02/12 09:38:58;;;;;;;803.13;390.27;;;;;;;;;;4964542;28;20045;-77
2022/02/12 09:41:27;;;;;;;799.47;378.70;;;;;;;;;;4960188;28;20395;-77
2022/02/12 09:43:53;;;;;;;801.65;381.90;;;;;;;;;;4965525;28;20046;-78
2022/02/12 09:46:19;;;;;;;809.08;388.00;;;;;;;;;;4938134;28;20122;-78
2022/02/12 09:48:46;;;;;;;802.25;387.05;;;;;;;;;;4962010;28;20579;-77
2022/02/12 09:51:13;;;;;;;804.85;396.80;;;;;;;;;;4956946;28;20406;-77
2022/02/12 09:53:39;;;;;;;809.20;406.92;;;;;;;;;;4950354;28;20034;-76
2022/02/12 09:56:05;;;;;;;809.97;412.85;;;;;;;;;;4981853;28;20025;-79
2022/02/12 09:58:31;;;;;;;809.63;413.58;;;;;;;;;;4957020;28;20043;-78
2022/02/12 10:00:57;;;;;;;809.25;409.08;;;;;;;;;;4959088;28;20455;-78
2022/02/12 10:03:23;;;;;;;813.42;420.17;;;;;;;;;;4987502;28;20127;-77
2022/02/12 10:05:51;;;;;;;809.75;410.55;;;;;;;;;;4972552;28;20433;-79
2022/02/12 10:08:17;;;;;;;806.25;399.88;;;;;;;;;;4989909;28;20462;-79
2022/02/12 10:10:45;;;;;;;803.97;395.92;;;;;;;;;;4952313;28;20027;-77
2022/02/12 10:13:19;;;;;;;804.80;393.73;;;;;;;;;;4971292;28;20078;-78
2022/02/12 10:15:49;;;;;;;806.03;395.48;;;;;;;;;;4987128;28;21438;-78
2022/02/12 10:18:15;;;;;;;;;;;;;;;;;;4946049;28;20039;-78
2022/02/12 10:20:43;;;;;;;802.05;386.17;;;;;;;;;;4967790;28;19913;-77
2022/02/12 10:23:12;;;;;;;831.15;408.95;;;;;;;;;;4970810;28;20032;-76
2022/02/12 10:25:38;;;;;;;809.80;415.20;;;;;;;;;;4982478;28;20276;-79
2022/02/12 10:28:05;;;;;;;816.67;427.38;;;;;;;;;;4974534;28;20065;-78
2022/02/12 10:30:32;;;;;;;814.03;427.20;;;;;;;;;;5000545;28;20029;-80
2022/02/12 10:33:01;;;;;;;809.60;412.17;;;;;;;;;;4975549;28;20042;-81
2022/02/12 10:35:28;;;;;;;808.58;405.85;;;;;;;;;;4980132;28;20643;-78
2022/02/12 10:37:58;;;;;;;813.13;416.52;;;;;;;;;;4956030;28;20043;-78
2022/02/12 10:40:24;;;;;;;824.50;428.75;;;;;;;;;;4991498;28;20053;-76
2022/02/12 10:42:51;;;;;;;813.38;423.35;;;;;;;;;;4989339;28;20481;-76
2022/02/12 10:45:18;;;;;;;812.55;422.55;;;;;;;;;;4953887;28;20026;-79
2022/02/12 10:47:47;;;;;;;808.58;412.58;;;;;;;;;;4960366;28;20705;-82
2022/02/12 10:50:14;;;;;;;814.83;424.52;;;;;;;;;;4955881;28;20028;-82
2022/02/12 10:52:44;;;;;;;821.05;434.40;;;;;;;;;;4983444;28;20106;-81
2022/02/12 10:55:29;;;;;;;819.15;439.88;;;;;;;;;;4981431;28;20027;-81
2022/02/12 10:57:55;;;;;;;818.10;447.60;;;;;;;;;;4975934;28;20039;-82
2022/02/12 11:00:21;;;;;;;822.05;453.50;;;;;;;;;;4958247;28;20027;-80
2022/02/12 11:02:47;;;;;;;815.22;443.30;;;;;;;;;;4944802;28;20417;-82
2022/02/12 11:05:14;;;;;;;819.33;443.20;;;;;;;;;;4960973;28;20387;-80
2022/02/12 11:07:40;;;;;;;815.88;439.63;;;;;;;;;;4979497;28;20058;-82
2022/02/12 11:10:07;;;;;;;814.85;437.65;;;;;;;;;;4969596;28;20028;-84
2022/02/12 11:12:36;;;;;;;816.00;434.45;;;;;;;;;;4960357;28;20028;-81
2022/02/12 11:15:02;;;;;;;818.38;447.42;;;;;;;;;;4963639;28;20035;-82
2022/02/12 11:17:31;;;;;;;818.53;449.17;;;;;;;;;;4969228;28;20363;-79
2022/02/12 11:19:58;;;;;;;811.90;432.70;;;;;;;;;;4974511;28;20043;-80
2022/02/12 11:22:24;;;;;;;813.50;426.90;;;;;;;;;;4965413;28;20063;-85
2022/02/12 11:24:50;;;;;;;810.20;422.40;;;;;;;;;;4960155;28;20029;-80
2022/02/12 11:27:23;;;;;;;811.17;423.10;;;;;;;;;;4948864;28;20096;-81
2022/02/12 11:29:50;;;;;;;811.70;426.50;;;;;;;;;;4960603;28;20027;-82
2022/02/12 11:32:16;;;;;;;811.53;424.58;;;;;;;;;;4976725;28;20058;-80
2022/02/12 11:34:55;;;;;;;810.40;427.73;;;;;;;;;;4977660;28;20031;-79
2022/02/12 11:37:21;;;;;;;811.03;420.70;;;;;;;;;;4958734;28;20435;-78
2022/02/12 11:40:05;;;;;;;814.05;426.60;;;;;;;;;;4969475;28;20428;-79
2022/02/12 11:42:40;;;;;;;806.67;417.80;;;;;;;;;;4967534;28;20138;-81
2022/02/12 11:45:31;;;;;;;809.63;414.95;;;;;;;;;;4974237;28;20040;-78
2022/02/12 11:48:18;;;;;;;802.00;398.40;;;;;;;;;;4981242;28;20046;-77
2022/02/12 11:50:45;;;;;;;811.88;410.45;;;;;;;;;;4960976;28;20039;-81
2022/02/12 11:53:31;;;;;;;805.67;406.02;;;;;;;;;;4939286;28;20554;-80
2022/02/12 11:55:57;;;;;;;802.80;400.30;;;;;;;;;;4949693;28;20015;-81
2022/02/12 11:58:46;;;;;;;808.15;414.23;;;;;;;;;;4954912;28;20456;-80
2022/02/12 12:01:35;;;;;;;804.60;405.42;;;;;;;;;;4939146;28;20085;-79
2022/02/12 12:04:21;;;;;;;804.13;400.30;;;;;;;;;;4941731;28;20031;-78
2022/02/12 12:07:03;;;;;;;804.63;405.42;;;;;;;;;;4961392;28;20116;-78
2022/02/12 12:09:33;;;;;;;807.10;408.27;;;;;;;;;;4956829;28;20070;-77
2022/02/12 12:12:11;;;;;;;810.92;414.70;;;;;;;;;;4982235;28;20023;-80
2022/02/12 12:14:38;;;;;;;807.00;406.63;;;;;;;;;;4984484;28;20892;-78
2022/02/12 12:17:04;;;;;;;807.30;412.00;;;;;;;;;;4961297;28;20443;-80
2022/02/12 12:19:36;;;;;;;805.70;406.48;;;;;;;;;;4957219;28;20647;-80
2022/02/12 12:22:02;;;;;;;805.97;412.27;;;;;;;;;;4962787;28;20031;-81
2022/02/12 12:24:28;;;;;;;808.88;416.60;;;;;;;;;;4966639;28;20035;-80
2022/02/12 12:26:54;;;;;;;806.28;409.13;;;;;;;;;;4952842;28;20031;-80
2022/02/12 12:32:06;;;;;;;806.58;411.52;;;;;;;;;;4971060;28;20048;-83
2022/02/12 12:34:32;;;;;;;809.92;419.35;;;;;;;;;;4973205;28;20442;-81
2022/02/12 12:36:59;;;;;;;810.08;418.23;;;;;;;;;;4977915;28;20031;-78
2022/02/12 12:39:32;;;;;;;808.85;415.65;;;;;;;;;;4978369;28;20469;-78
2022/02/12 12:41:59;;;;;;;807.00;405.67;;;;;;;;;;4943042;28;20110;-80
2022/02/12 12:44:25;;;;;;;805.63;407.73;;;;;;;;;;4979157;28;20051;-79
2022/02/12 12:46:54;;;;;;;803.55;404.30;;;;;;;;;;4940165;28;20476;-82
2022/02/12 12:49:27;;;;;;;802.83;400.65;;;;;;;;;;4955304;28;20319;-79
2022/02/12 12:51:53;;;;;;;803.72;398.13;;;;;;;;;;4959939;28;20478;-78
2022/02/12 12:54:33;;;;;;;803.42;397.02;;;;;;;;;;4952992;28;20051;-79
2022/02/12 12:57:00;;;;;;;806.35;400.88;;;;;;;;;;4942213;28;20080;-80
2022/02/12 12:59:26;;;;;;;804.92;399.35;;;;;;;;;;4955409;28;20033;-80
2022/02/12 13:02:00;;;;;;;806.05;405.15;;;;;;;;;;4948691;28;20039;-80
2022/02/12 13:04:26;;;;;;;802.70;389.08;;;;;;;;;;4971619;28;20390;-80
2022/02/12 13:06:54;;;;;;;803.63;397.50;;;;;;;;;;4952273;28;20061;-79
2022/02/12 13:09:20;;;;;;;806.88;403.98;;;;;;;;;;4954797;28;20024;-79
2022/02/12 13:11:46;;;;;;;808.88;407.73;;;;;;;;;;4975305;28;20098;-81
2022/02/12 13:14:12;;;;;;;807.00;406.65;;;;;;;;;;4952617;28;20119;-80
2022/02/12 13:16:40;;;;;;;806.97;407.42;;;;;;;;;;4980484;28;20142;-82
2022/02/12 13:19:12;;;;;;;805.30;402.33;;;;;;;;;;4972818;28;20027;-80
2022/02/12 13:21:38;;;;;;;804.92;404.20;;;;;;;;;;4966484;28;20040;-80
2022/02/12 13:24:05;;;;;;;805.90;399.90;;;;;;;;;;4988108;28;20033;-78
2022/02/12 13:26:31;;;;;;;807.40;411.48;;;;;;;;;;4955148;28;20572;-79
2022/02/12 13:28:57;;;;;;;804.88;401.45;;;;;;;;;;4962671;28;20031;-78
2022/02/12 13:31:26;;;;;;;807.15;407.45;;;;;;;;;;4957622;28;20023;-87
2022/02/12 13:33:59;;;;;;;808.72;411.02;;;;;;;;;;4972193;28;20024;-83
2022/02/12 13:36:25;;;;;;;809.05;407.65;;;;;;;;;;4979999;28;20027;-82
2022/02/12 13:38:51;;;;;;;814.25;416.77;;;;;;;;;;4966382;28;20031;-80
2022/02/12 13:41:17;;;;;;;809.95;415.20;;;;;;;;;;4944818;28;20027;-83
2022/02/12 13:43:44;;;;;;;805.42;408.45;;;;;;;;;;4989453;28;20035;-81
2022/02/12 13:46:10;;;;;;;805.28;405.30;;;;;;;;;;4975538;28;20035;-83
2022/02/12 13:48:41;;;;;;;811.40;416.70;;;;;;;;;;4974236;28;20027;-82
2022/02/12 13:51:08;;;;;;;806.75;405.80;;;;;;;;;;4939345;28;20034;-83
2022/02/12 13:53:41;;;;;;;806.65;408.80;;;;;;;;;;4948896;28;20232;-81
2022/02/12 13:56:07;;;;;;;803.03;398.85;;;;;;;;;;4946424;28;20031;-80
2022/02/12 13:58:35;;;;;;;805.80;406.45;;;;;;;;;;4974580;28;20035;-88
2022/02/12 14:01:00;;;;;;;805.75;403.88;;;;;;;;;;4982661;28;20027;-81
2022/02/12 14:03:37;;;;;;;807.45;410.90;;;;;;;;;;4947083;28;20031;-82
2022/02/12 14:06:05;;;;;;;803.95;402.52;;;;;;;;;;4966683;28;20162;-81
2022/02/12 14:08:32;;;;;;;807.05;407.83;;;;;;;;;;4997710;28;20537;-84